sensor_id;sensor_type;location;lat;lon;timestamp;P1;durP1;ratioP1;P2;durP2;ratioP2
3159;SDS011;1591;51.486;7.146;2022-07-23T00:00:44;10.40;;;8.00;;
3159;SDS011;1591;51.486;7.146;2022-07-23T00:03:12;14.47;;;7.97;;
3159;SDS011;1591;51.486;7.146;2022-07-23T00:05:39;12.80;;;9.13;;
3159;SDS011;1591;51.486;7.146;2022-07-23T00:08:06;15.13;;;8.77;;
3159;SDS011;1591;51.486;7.146;2022-07-23T00:10:33;12.70;;;8.60;;
3159;SDS011;1591;51.486;7.146;2022-07-23T00:13:04;13.80;;;8.67;;
3159;SDS011;1591;51.486;7.146;2022-07-23T00:15:31;14.73;;;9.43;;
3159;SDS011;1591;51.486;7.146;2022-07-23T00:17:58;12.17;;;8.77;;
3159;SDS011;1591;51.486;7.146;2022-07-23T00:20:25;17.77;;;9.83;;
3159;SDS011;1591;51.486;7.146;2022-07-23T00:22:53;20.10;;;10.30;;
3159;SDS011;1591;51.486;7.146;2022-07-23T00:25:23;18.15;;;10.40;;
3159;SDS011;1591;51.486;7.146;2022-07-23T00:27:52;17.97;;;13.00;;
3159;SDS011;1591;51.486;7.146;2022-07-23T00:30:20;20.87;;;13.03;;
3159;SDS011;1591;51.486;7.146;2022-07-23T00:32:48;20.70;;;13.73;;
3159;SDS011;1591;51.486;7.146;2022-07-23T00:35:16;18.57;;;11.90;;
3159;SDS011;1591;51.486;7.146;2022-07-23T00:37:47;22.73;;;11.90;;
3159;SDS011;1591;51.486;7.146;2022-07-23T00:40:14;15.47;;;10.73;;
3159;SDS011;1591;51.486;7.146;2022-07-23T00:42:41;14.43;;;11.53;;
3159;SDS011;1591;51.486;7.146;2022-07-23T00:45:09;18.50;;;11.20;;
3159;SDS011;1591;51.486;7.146;2022-07-23T00:47:37;15.17;;;11.30;;
3159;SDS011;1591;51.486;7.146;2022-07-23T00:50:06;17.67;;;11.77;;
3159;SDS011;1591;51.486;7.146;2022-07-23T00:52:35;17.83;;;11.53;;
3159;SDS011;1591;51.486;7.146;2022-07-23T00:55:04;15.63;;;12.37;;
3159;SDS011;1591;51.486;7.146;2022-07-23T00:57:32;17.47;;;12.37;;
3159;SDS011;1591;51.486;7.146;2022-07-23T00:59:59;17.23;;;13.03;;
3159;SDS011;1591;51.486;7.146;2022-07-23T01:02:27;19.60;;;14.30;;
3159;SDS011;1591;51.486;7.146;2022-07-23T01:04:55;19.40;;;13.70;;
3159;SDS011;1591;51.486;7.146;2022-07-23T01:07:22;23.67;;;14.63;;
3159;SDS011;1591;51.486;7.146;2022-07-23T01:09:50;22.33;;;15.50;;
3159;SDS011;1591;51.486;7.146;2022-07-23T01:12:18;19.90;;;14.10;;
3159;SDS011;1591;51.486;7.146;2022-07-23T01:14:45;26.23;;;14.77;;
3159;SDS011;1591;51.486;7.146;2022-07-23T01:17:19;21.53;;;14.60;;
3159;SDS011;1591;51.486;7.146;2022-07-23T01:19:45;20.13;;;14.20;;
3159;SDS011;1591;51.486;7.146;2022-07-23T01:22:14;21.27;;;14.57;;
3159;SDS011;1591;51.486;7.146;2022-07-23T01:24:45;21.70;;;14.10;;
3159;SDS011;1591;51.486;7.146;2022-07-23T01:27:13;21.53;;;13.17;;
3159;SDS011;1591;51.486;7.146;2022-07-23T01:29:40;21.93;;;13.30;;
3159;SDS011;1591;51.486;7.146;2022-07-23T01:32:06;18.53;;;12.67;;
3159;SDS011;1591;51.486;7.146;2022-07-23T01:34:34;17.53;;;12.50;;
3159;SDS011;1591;51.486;7.146;2022-07-23T01:37:01;20.37;;;13.47;;
3159;SDS011;1591;51.486;7.146;2022-07-23T01:39:28;16.20;;;12.10;;
3159;SDS011;1591;51.486;7.146;2022-07-23T01:41:56;15.10;;;11.47;;
3159;SDS011;1591;51.486;7.146;2022-07-23T01:44:23;15.90;;;11.50;;
3159;SDS011;1591;51.486;7.146;2022-07-23T01:46:50;14.40;;;10.90;;
3159;SDS011;1591;51.486;7.146;2022-07-23T01:49:17;12.20;;;9.83;;
3159;SDS011;1591;51.486;7.146;2022-07-23T01:51:44;14.03;;;11.23;;
3159;SDS011;1591;51.486;7.146;2022-07-23T01:54:25;16.57;;;10.63;;
3159;SDS011;1591;51.486;7.146;2022-07-23T01:56:53;17.47;;;11.47;;
3159;SDS011;1591;51.486;7.146;2022-07-23T01:59:21;16.03;;;10.67;;
3159;SDS011;1591;51.486;7.146;2022-07-23T02:01:48;14.30;;;10.67;;
3159;SDS011;1591;51.486;7.146;2022-07-23T02:04:16;13.67;;;10.43;;
3159;SDS011;1591;51.486;7.146;2022-07-23T02:06:43;16.00;;;10.63;;
3159;SDS011;1591;51.486;7.146;2022-07-23T02:09:10;13.40;;;10.53;;
3159;SDS011;1591;51.486;7.146;2022-07-23T02:11:37;14.33;;;10.57;;
3159;SDS011;1591;51.486;7.146;2022-07-23T02:14:04;15.20;;;9.90;;
3159;SDS011;1591;51.486;7.146;2022-07-23T02:16:33;13.90;;;10.90;;
3159;SDS011;1591;51.486;7.146;2022-07-23T02:19:00;14.30;;;10.07;;
3159;SDS011;1591;51.486;7.146;2022-07-23T02:21:28;11.80;;;9.80;;
3159;SDS011;1591;51.486;7.146;2022-07-23T02:23:55;13.60;;;9.90;;
3159;SDS011;1591;51.486;7.146;2022-07-23T02:26:22;14.17;;;9.63;;
3159;SDS011;1591;51.486;7.146;2022-07-23T02:28:49;17.60;;;10.90;;
3159;SDS011;1591;51.486;7.146;2022-07-23T02:31:17;14.80;;;9.87;;
3159;SDS011;1591;51.486;7.146;2022-07-23T02:33:46;16.10;;;10.10;;
3159;SDS011;1591;51.486;7.146;2022-07-23T02:36:13;17.93;;;11.17;;
3159;SDS011;1591;51.486;7.146;2022-07-23T02:38:40;14.90;;;10.73;;
3159;SDS011;1591;51.486;7.146;2022-07-23T02:41:06;17.43;;;9.60;;
3159;SDS011;1591;51.486;7.146;2022-07-23T02:43:33;17.30;;;10.70;;
3159;SDS011;1591;51.486;7.146;2022-07-23T02:46:00;15.00;;;9.87;;
3159;SDS011;1591;51.486;7.146;2022-07-23T02:48:27;16.07;;;10.60;;
3159;SDS011;1591;51.486;7.146;2022-07-23T02:50:57;11.73;;;10.50;;
3159;SDS011;1591;51.486;7.146;2022-07-23T02:53:25;13.50;;;10.17;;
3159;SDS011;1591;51.486;7.146;2022-07-23T02:55:52;11.30;;;10.10;;
3159;SDS011;1591;51.486;7.146;2022-07-23T02:58:19;12.53;;;10.20;;
3159;SDS011;1591;51.486;7.146;2022-07-23T03:00:46;15.00;;;11.10;;
3159;SDS011;1591;51.486;7.146;2022-07-23T03:03:13;14.60;;;10.87;;
3159;SDS011;1591;51.486;7.146;2022-07-23T03:05:40;15.23;;;11.57;;
3159;SDS011;1591;51.486;7.146;2022-07-23T03:08:08;14.63;;;10.90;;
3159;SDS011;1591;51.486;7.146;2022-07-23T03:10:35;17.40;;;11.97;;
3159;SDS011;1591;51.486;7.146;2022-07-23T03:13:02;20.83;;;12.20;;
3159;SDS011;1591;51.486;7.146;2022-07-23T03:15:29;14.00;;;10.93;;
3159;SDS011;1591;51.486;7.146;2022-07-23T03:17:56;14.30;;;11.40;;
3159;SDS011;1591;51.486;7.146;2022-07-23T03:20:23;15.40;;;11.50;;
3159;SDS011;1591;51.486;7.146;2022-07-23T03:22:50;14.90;;;11.50;;
3159;SDS011;1591;51.486;7.146;2022-07-23T03:25:18;17.57;;;11.13;;
3159;SDS011;1591;51.486;7.146;2022-07-23T03:27:45;12.20;;;10.53;;
3159;SDS011;1591;51.486;7.146;2022-07-23T03:30:12;15.97;;;11.77;;
3159;SDS011;1591;51.486;7.146;2022-07-23T03:32:39;17.93;;;11.30;;
3159;SDS011;1591;51.486;7.146;2022-07-23T03:35:06;15.23;;;10.83;;
3159;SDS011;1591;51.486;7.146;2022-07-23T03:37:34;20.67;;;12.43;;
3159;SDS011;1591;51.486;7.146;2022-07-23T03:40:02;16.87;;;12.00;;
3159;SDS011;1591;51.486;7.146;2022-07-23T03:42:32;22.13;;;12.60;;
3159;SDS011;1591;51.486;7.146;2022-07-23T03:44:59;14.83;;;12.20;;
3159;SDS011;1591;51.486;7.146;2022-07-23T03:47:26;17.20;;;11.10;;
3159;SDS011;1591;51.486;7.146;2022-07-23T03:49:53;16.90;;;12.30;;
3159;SDS011;1591;51.486;7.146;2022-07-23T03:52:20;16.43;;;13.73;;
3159;SDS011;1591;51.486;7.146;2022-07-23T03:54:47;19.03;;;13.07;;
3159;SDS011;1591;51.486;7.146;2022-07-23T03:57:14;20.57;;;12.77;;
3159;SDS011;1591;51.486;7.146;2022-07-23T03:59:43;23.13;;;13.10;;
3159;SDS011;1591;51.486;7.146;2022-07-23T04:02:10;19.63;;;13.27;;
3159;SDS011;1591;51.486;7.146;2022-07-23T04:04:37;18.80;;;12.90;;
3159;SDS011;1591;51.486;7.146;2022-07-23T04:07:04;21.17;;;13.10;;
3159;SDS011;1591;51.486;7.146;2022-07-23T04:09:32;16.77;;;12.57;;
3159;SDS011;1591;51.486;7.146;2022-07-23T04:12:00;17.10;;;12.67;;
3159;SDS011;1591;51.486;7.146;2022-07-23T04:14:27;21.90;;;13.30;;
3159;SDS011;1591;51.486;7.146;2022-07-23T04:16:55;15.80;;;12.10;;
3159;SDS011;1591;51.486;7.146;2022-07-23T04:19:22;16.00;;;13.47;;
3159;SDS011;1591;51.486;7.146;2022-07-23T04:21:49;20.07;;;13.10;;
3159;SDS011;1591;51.486;7.146;2022-07-23T04:24:16;19.83;;;13.07;;
3159;SDS011;1591;51.486;7.146;2022-07-23T04:26:44;19.60;;;13.37;;
3159;SDS011;1591;51.486;7.146;2022-07-23T04:29:11;18.93;;;12.93;;
3159;SDS011;1591;51.486;7.146;2022-07-23T04:31:38;21.20;;;13.10;;
3159;SDS011;1591;51.486;7.146;2022-07-23T04:34:06;18.73;;;13.67;;
3159;SDS011;1591;51.486;7.146;2022-07-23T04:36:33;17.07;;;12.10;;
3159;SDS011;1591;51.486;7.146;2022-07-23T04:39:00;15.87;;;12.10;;
3159;SDS011;1591;51.486;7.146;2022-07-23T04:41:27;19.00;;;13.20;;
3159;SDS011;1591;51.486;7.146;2022-07-23T04:43:54;21.27;;;13.83;;
3159;SDS011;1591;51.486;7.146;2022-07-23T04:46:21;16.53;;;12.50;;
3159;SDS011;1591;51.486;7.146;2022-07-23T04:48:48;14.93;;;12.30;;
3159;SDS011;1591;51.486;7.146;2022-07-23T04:51:16;17.10;;;11.83;;
3159;SDS011;1591;51.486;7.146;2022-07-23T04:53:43;16.00;;;12.37;;
3159;SDS011;1591;51.486;7.146;2022-07-23T04:56:10;15.70;;;12.47;;
3159;SDS011;1591;51.486;7.146;2022-07-23T04:58:37;14.50;;;11.43;;
3159;SDS011;1591;51.486;7.146;2022-07-23T05:01:04;17.70;;;11.83;;
3159;SDS011;1591;51.486;7.146;2022-07-23T05:03:31;18.13;;;13.17;;
3159;SDS011;1591;51.486;7.146;2022-07-23T05:05:58;19.43;;;11.60;;
3159;SDS011;1591;51.486;7.146;2022-07-23T05:08:27;14.03;;;12.53;;
3159;SDS011;1591;51.486;7.146;2022-07-23T05:10:54;14.00;;;12.07;;
3159;SDS011;1591;51.486;7.146;2022-07-23T05:13:21;18.10;;;12.27;;
3159;SDS011;1591;51.486;7.146;2022-07-23T05:15:49;15.47;;;12.03;;
3159;SDS011;1591;51.486;7.146;2022-07-23T05:18:16;18.23;;;12.40;;
3159;SDS011;1591;51.486;7.146;2022-07-23T05:20:43;15.60;;;12.30;;
3159;SDS011;1591;51.486;7.146;2022-07-23T05:23:10;18.37;;;13.17;;
3159;SDS011;1591;51.486;7.146;2022-07-23T05:25:39;17.30;;;12.30;;
3159;SDS011;1591;51.486;7.146;2022-07-23T05:28:06;15.53;;;12.00;;
3159;SDS011;1591;51.486;7.146;2022-07-23T05:30:33;19.80;;;11.90;;
3159;SDS011;1591;51.486;7.146;2022-07-23T05:33:00;19.87;;;11.50;;
3159;SDS011;1591;51.486;7.146;2022-07-23T05:35:26;17.70;;;12.87;;
3159;SDS011;1591;51.486;7.146;2022-07-23T05:37:54;12.33;;;11.00;;
3159;SDS011;1591;51.486;7.146;2022-07-23T05:40:20;13.90;;;11.50;;
3159;SDS011;1591;51.486;7.146;2022-07-23T05:42:49;14.77;;;12.80;;
3159;SDS011;1591;51.486;7.146;2022-07-23T05:45:16;17.33;;;14.00;;
3159;SDS011;1591;51.486;7.146;2022-07-23T05:47:43;19.43;;;14.10;;
3159;SDS011;1591;51.486;7.146;2022-07-23T05:50:12;15.90;;;13.10;;
3159;SDS011;1591;51.486;7.146;2022-07-23T05:52:40;16.10;;;13.03;;
3159;SDS011;1591;51.486;7.146;2022-07-23T05:55:07;13.70;;;12.30;;
3159;SDS011;1591;51.486;7.146;2022-07-23T05:57:37;18.20;;;14.30;;
3159;SDS011;1591;51.486;7.146;2022-07-23T06:00:06;14.60;;;12.77;;
3159;SDS011;1591;51.486;7.146;2022-07-23T06:02:35;17.80;;;14.77;;
3159;SDS011;1591;51.486;7.146;2022-07-23T06:05:03;19.30;;;15.07;;
3159;SDS011;1591;51.486;7.146;2022-07-23T06:07:32;18.70;;;14.37;;
3159;SDS011;1591;51.486;7.146;2022-07-23T06:09:59;15.70;;;14.00;;
3159;SDS011;1591;51.486;7.146;2022-07-23T06:12:26;19.57;;;13.47;;
3159;SDS011;1591;51.486;7.146;2022-07-23T06:14:53;15.50;;;13.90;;
3159;SDS011;1591;51.486;7.146;2022-07-23T06:17:21;18.43;;;13.47;;
3159;SDS011;1591;51.486;7.146;2022-07-23T06:19:49;14.40;;;12.87;;
3159;SDS011;1591;51.486;7.146;2022-07-23T06:22:15;15.40;;;13.40;;
3159;SDS011;1591;51.486;7.146;2022-07-23T06:24:42;16.03;;;12.57;;
3159;SDS011;1591;51.486;7.146;2022-07-23T06:27:09;17.63;;;14.03;;
3159;SDS011;1591;51.486;7.146;2022-07-23T06:29:36;15.87;;;13.13;;
3159;SDS011;1591;51.486;7.146;2022-07-23T06:32:05;15.50;;;13.63;;
3159;SDS011;1591;51.486;7.146;2022-07-23T06:34:34;15.90;;;13.50;;
3159;SDS011;1591;51.486;7.146;2022-07-23T06:37:01;21.03;;;14.63;;
3159;SDS011;1591;51.486;7.146;2022-07-23T06:39:28;18.70;;;14.13;;
3159;SDS011;1591;51.486;7.146;2022-07-23T06:41:55;17.13;;;13.70;;
3159;SDS011;1591;51.486;7.146;2022-07-23T06:44:22;19.63;;;14.73;;
3159;SDS011;1591;51.486;7.146;2022-07-23T06:46:49;19.27;;;15.10;;
3159;SDS011;1591;51.486;7.146;2022-07-23T06:49:16;20.47;;;16.37;;
3159;SDS011;1591;51.486;7.146;2022-07-23T06:51:44;19.60;;;15.13;;
3159;SDS011;1591;51.486;7.146;2022-07-23T06:54:11;24.53;;;15.33;;
3159;SDS011;1591;51.486;7.146;2022-07-23T06:56:38;19.17;;;14.77;;
3159;SDS011;1591;51.486;7.146;2022-07-23T06:59:05;18.57;;;14.33;;
3159;SDS011;1591;51.486;7.146;2022-07-23T07:01:32;22.40;;;14.77;;
3159;SDS011;1591;51.486;7.146;2022-07-23T07:03:59;20.70;;;15.40;;
3159;SDS011;1591;51.486;7.146;2022-07-23T07:06:26;21.47;;;15.03;;
3159;SDS011;1591;51.486;7.146;2022-07-23T07:08:54;17.67;;;14.67;;
3159;SDS011;1591;51.486;7.146;2022-07-23T07:11:21;17.90;;;13.23;;
3159;SDS011;1591;51.486;7.146;2022-07-23T07:13:50;26.33;;;13.73;;
3159;SDS011;1591;51.486;7.146;2022-07-23T07:16:17;17.87;;;13.60;;
3159;SDS011;1591;51.486;7.146;2022-07-23T07:18:44;20.97;;;14.50;;
3159;SDS011;1591;51.486;7.146;2022-07-23T07:21:11;20.50;;;14.17;;
3159;SDS011;1591;51.486;7.146;2022-07-23T07:23:38;20.17;;;13.47;;
3159;SDS011;1591;51.486;7.146;2022-07-23T07:26:06;19.80;;;13.87;;
3159;SDS011;1591;51.486;7.146;2022-07-23T07:28:33;16.83;;;13.50;;
3159;SDS011;1591;51.486;7.146;2022-07-23T07:31:00;18.07;;;14.47;;
3159;SDS011;1591;51.486;7.146;2022-07-23T07:33:27;15.83;;;14.17;;
3159;SDS011;1591;51.486;7.146;2022-07-23T07:35:55;19.83;;;14.67;;
3159;SDS011;1591;51.486;7.146;2022-07-23T07:38:22;21.30;;;14.17;;
3159;SDS011;1591;51.486;7.146;2022-07-23T07:40:49;17.97;;;14.00;;
3159;SDS011;1591;51.486;7.146;2022-07-23T07:43:17;15.90;;;12.60;;
3159;SDS011;1591;51.486;7.146;2022-07-23T07:45:44;14.80;;;12.33;;
3159;SDS011;1591;51.486;7.146;2022-07-23T07:48:11;14.67;;;10.53;;
3159;SDS011;1591;51.486;7.146;2022-07-23T07:50:38;15.07;;;10.90;;
3159;SDS011;1591;51.486;7.146;2022-07-23T07:53:05;13.47;;;11.33;;
3159;SDS011;1591;51.486;7.146;2022-07-23T07:55:32;14.57;;;11.13;;
3159;SDS011;1591;51.486;7.146;2022-07-23T07:57:59;15.87;;;11.73;;
3159;SDS011;1591;51.486;7.146;2022-07-23T08:00:27;14.00;;;11.43;;
3159;SDS011;1591;51.486;7.146;2022-07-23T08:02:54;15.10;;;11.90;;
3159;SDS011;1591;51.486;7.146;2022-07-23T08:05:22;12.37;;;10.30;;
3159;SDS011;1591;51.486;7.146;2022-07-23T08:07:51;14.17;;;11.20;;
3159;SDS011;1591;51.486;7.146;2022-07-23T08:10:18;13.33;;;9.97;;
3159;SDS011;1591;51.486;7.146;2022-07-23T08:12:46;19.50;;;14.07;;
3159;SDS011;1591;51.486;7.146;2022-07-23T08:15:17;19.57;;;13.03;;
3159;SDS011;1591;51.486;7.146;2022-07-23T08:17:47;14.40;;;12.90;;
3159;SDS011;1591;51.486;7.146;2022-07-23T08:20:16;14.87;;;12.53;;
3159;SDS011;1591;51.486;7.146;2022-07-23T08:22:47;15.07;;;13.40;;
3159;SDS011;1591;51.486;7.146;2022-07-23T08:25:16;19.77;;;10.90;;
3159;SDS011;1591;51.486;7.146;2022-07-23T08:27:47;17.60;;;13.70;;
3159;SDS011;1591;51.486;7.146;2022-07-23T08:30:15;17.30;;;12.53;;
3159;SDS011;1591;51.486;7.146;2022-07-23T08:32:51;14.60;;;13.07;;
3159;SDS011;1591;51.486;7.146;2022-07-23T08:35:21;17.03;;;11.60;;
3159;SDS011;1591;51.486;7.146;2022-07-23T08:37:51;11.47;;;9.90;;
3159;SDS011;1591;51.486;7.146;2022-07-23T08:40:18;12.87;;;11.53;;
3159;SDS011;1591;51.486;7.146;2022-07-23T08:42:47;19.83;;;14.37;;
3159;SDS011;1591;51.486;7.146;2022-07-23T08:45:17;16.47;;;14.70;;
3159;SDS011;1591;51.486;7.146;2022-07-23T08:47:47;12.00;;;10.80;;
3159;SDS011;1591;51.486;7.146;2022-07-23T08:50:18;12.97;;;11.73;;
3159;SDS011;1591;51.486;7.146;2022-07-23T08:52:46;15.07;;;13.60;;
3159;SDS011;1591;51.486;7.146;2022-07-23T08:55:16;16.27;;;11.20;;
3159;SDS011;1591;51.486;7.146;2022-07-23T08:57:44;12.23;;;9.93;;
3159;SDS011;1591;51.486;7.146;2022-07-23T09:00:15;11.70;;;9.80;;
3159;SDS011;1591;51.486;7.146;2022-07-23T09:02:43;9.30;;;8.20;;
3159;SDS011;1591;51.486;7.146;2022-07-23T09:05:13;14.23;;;8.10;;
3159;SDS011;1591;51.486;7.146;2022-07-23T09:10:30;7.80;;;6.90;;
3159;SDS011;1591;51.486;7.146;2022-07-23T09:13:22;8.37;;;6.80;;
3159;SDS011;1591;51.486;7.146;2022-07-23T09:16:02;7.43;;;6.70;;
3159;SDS011;1591;51.486;7.146;2022-07-23T09:18:36;11.07;;;6.70;;
3159;SDS011;1591;51.486;7.146;2022-07-23T09:21:11;8.37;;;6.27;;
3159;SDS011;1591;51.486;7.146;2022-07-23T09:23:42;7.70;;;5.50;;
3159;SDS011;1591;51.486;7.146;2022-07-23T09:26:25;6.80;;;6.10;;
3159;SDS011;1591;51.486;7.146;2022-07-23T09:29:02;6.90;;;5.80;;
3159;SDS011;1591;51.486;7.146;2022-07-23T09:31:46;6.87;;;5.93;;
3159;SDS011;1591;51.486;7.146;2022-07-23T09:34:17;5.13;;;3.90;;
3159;SDS011;1591;51.486;7.146;2022-07-23T09:36:48;5.73;;;4.33;;
3159;SDS011;1591;51.486;7.146;2022-07-23T09:39:21;7.27;;;5.30;;
3159;SDS011;1591;51.486;7.146;2022-07-23T09:41:55;7.20;;;4.60;;
3159;SDS011;1591;51.486;7.146;2022-07-23T09:44:23;5.93;;;4.73;;
3159;SDS011;1591;51.486;7.146;2022-07-23T09:46:50;8.30;;;4.40;;
3159;SDS011;1591;51.486;7.146;2022-07-23T09:49:23;6.37;;;4.70;;
3159;SDS011;1591;51.486;7.146;2022-07-23T09:51:53;5.80;;;4.13;;
3159;SDS011;1591;51.486;7.146;2022-07-23T09:54:26;5.50;;;4.10;;
3159;SDS011;1591;51.486;7.146;2022-07-23T09:56:58;6.00;;;4.57;;
3159;SDS011;1591;51.486;7.146;2022-07-23T09:59:27;7.83;;;3.73;;
3159;SDS011;1591;51.486;7.146;2022-07-23T10:01:56;4.97;;;4.27;;
3159;SDS011;1591;51.486;7.146;2022-07-23T10:04:24;4.27;;;3.87;;
3159;SDS011;1591;51.486;7.146;2022-07-23T10:06:55;4.30;;;3.70;;
3159;SDS011;1591;51.486;7.146;2022-07-23T10:09:26;5.97;;;4.27;;
3159;SDS011;1591;51.486;7.146;2022-07-23T10:11:57;5.63;;;4.03;;
3159;SDS011;1591;51.486;7.146;2022-07-23T10:14:40;5.63;;;4.40;;
3159;SDS011;1591;51.486;7.146;2022-07-23T10:17:07;6.23;;;4.40;;
3159;SDS011;1591;51.486;7.146;2022-07-23T10:19:35;4.70;;;4.00;;
3159;SDS011;1591;51.486;7.146;2022-07-23T10:22:05;5.50;;;3.50;;
3159;SDS011;1591;51.486;7.146;2022-07-23T10:24:38;4.30;;;3.57;;
3159;SDS011;1591;51.486;7.146;2022-07-23T10:27:27;8.97;;;3.67;;
3159;SDS011;1591;51.486;7.146;2022-07-23T10:30:49;4.07;;;3.67;;
3159;SDS011;1591;51.486;7.146;2022-07-23T10:33:30;6.77;;;3.60;;
3159;SDS011;1591;51.486;7.146;2022-07-23T10:36:11;3.70;;;3.40;;
3159;SDS011;1591;51.486;7.146;2022-07-23T10:38:50;5.77;;;3.50;;
3159;SDS011;1591;51.486;7.146;2022-07-23T10:41:31;6.00;;;3.67;;
3159;SDS011;1591;51.486;7.146;2022-07-23T10:44:05;4.87;;;3.50;;
3159;SDS011;1591;51.486;7.146;2022-07-23T10:49:53;6.00;;;3.20;;
3159;SDS011;1591;51.486;7.146;2022-07-23T10:52:42;4.13;;;3.77;;
3159;SDS011;1591;51.486;7.146;2022-07-23T10:55:40;5.20;;;3.70;;
3159;SDS011;1591;51.486;7.146;2022-07-23T10:58:11;4.30;;;3.53;;
3159;SDS011;1591;51.486;7.146;2022-07-23T11:00:45;3.47;;;3.03;;
3159;SDS011;1591;51.486;7.146;2022-07-23T11:03:29;3.50;;;3.20;;
3159;SDS011;1591;51.486;7.146;2022-07-23T11:06:01;4.60;;;3.33;;
3159;SDS011;1591;51.486;7.146;2022-07-23T11:08:29;4.20;;;3.50;;
3159;SDS011;1591;51.486;7.146;2022-07-23T11:11:08;5.13;;;3.80;;
3159;SDS011;1591;51.486;7.146;2022-07-23T11:13:38;5.60;;;2.97;;
3159;SDS011;1591;51.486;7.146;2022-07-23T11:16:12;4.33;;;2.90;;
3159;SDS011;1591;51.486;7.146;2022-07-23T11:19:04;2.63;;;2.43;;
3159;SDS011;1591;51.486;7.146;2022-07-23T11:21:46;3.30;;;2.50;;
3159;SDS011;1591;51.486;7.146;2022-07-23T11:24:19;4.30;;;2.97;;
3159;SDS011;1591;51.486;7.146;2022-07-23T11:29:44;4.70;;;2.60;;
3159;SDS011;1591;51.486;7.146;2022-07-23T11:35:27;3.47;;;3.00;;
3159;SDS011;1591;51.486;7.146;2022-07-23T11:38:02;5.03;;;3.00;;
3159;SDS011;1591;51.486;7.146;2022-07-23T11:40:31;3.30;;;3.00;;
3159;SDS011;1591;51.486;7.146;2022-07-23T11:43:01;4.80;;;3.17;;
3159;SDS011;1591;51.486;7.146;2022-07-23T11:45:32;3.73;;;2.43;;
3159;SDS011;1591;51.486;7.146;2022-07-23T11:48:00;5.10;;;2.40;;
3159;SDS011;1591;51.486;7.146;2022-07-23T11:50:28;4.80;;;2.50;;
3159;SDS011;1591;51.486;7.146;2022-07-23T11:52:55;5.00;;;3.00;;
3159;SDS011;1591;51.486;7.146;2022-07-23T11:55:22;4.43;;;2.10;;
3159;SDS011;1591;51.486;7.146;2022-07-23T11:57:50;9.70;;;2.73;;
3159;SDS011;1591;51.486;7.146;2022-07-23T12:00:23;3.03;;;2.67;;
3159;SDS011;1591;51.486;7.146;2022-07-23T12:02:53;3.03;;;2.40;;
3159;SDS011;1591;51.486;7.146;2022-07-23T12:05:26;3.00;;;2.27;;
3159;SDS011;1591;51.486;7.146;2022-07-23T12:07:55;3.50;;;2.80;;
3159;SDS011;1591;51.486;7.146;2022-07-23T12:10:24;3.13;;;2.83;;
3159;SDS011;1591;51.486;7.146;2022-07-23T12:12:55;3.50;;;2.80;;
3159;SDS011;1591;51.486;7.146;2022-07-23T12:15:26;3.30;;;2.47;;
3159;SDS011;1591;51.486;7.146;2022-07-23T12:17:56;5.10;;;2.30;;
3159;SDS011;1591;51.486;7.146;2022-07-23T12:20:25;2.43;;;2.17;;
3159;SDS011;1591;51.486;7.146;2022-07-23T12:22:55;3.40;;;2.37;;
3159;SDS011;1591;51.486;7.146;2022-07-23T12:25:24;2.57;;;2.30;;
3159;SDS011;1591;51.486;7.146;2022-07-23T12:27:59;4.67;;;3.20;;
